createdAt,value
2022-11-15T01:25:08.377Z,3.52
2022-11-15T01:27:55.068Z,3.55
2022-11-15T01:30:41.685Z,3.59
2022-11-15T01:33:29.666Z,3.59
2022-11-15T01:36:19.806Z,3.60
2022-11-15T01:39:06.025Z,3.60
2022-11-15T01:41:52.705Z,3.59
2022-11-15T01:44:43.469Z,3.56
2022-11-15T01:47:38.662Z,3.53
2022-11-15T01:50:32.006Z,3.53
2022-11-15T01:53:21.081Z,3.49
2022-11-15T01:56:12.114Z,3.38
2022-11-15T01:59:04.017Z,3.28
2022-11-15T02:01:50.863Z,3.14
2022-11-15T02:04:42.623Z,3.13
2022-11-15T02:07:30.731Z,3.18
2022-11-15T02:10:23.558Z,3.18
2022-11-15T02:13:10.041Z,3.20
2022-11-15T02:16:19.246Z,3.21
2022-11-15T02:19:23.248Z,3.13
2022-11-15T02:22:37.397Z,3.16
2022-11-15T02:25:49.974Z,3.11
2022-11-15T02:28:59.596Z,2.98
2022-11-15T02:32:07.746Z,2.83
2022-11-15T02:35:06.319Z,2.76
2022-11-15T02:37:58.314Z,2.76
2022-11-15T02:41:13.441Z,2.79
2022-11-15T02:44:35.899Z,2.79
2022-11-15T02:47:24.325Z,2.63
2022-11-15T02:50:17.232Z,2.51
2022-11-15T02:53:04.384Z,2.50
2022-11-15T02:55:55.561Z,2.44
2022-11-15T02:59:20.599Z,2.34
2022-11-15T03:02:23.520Z,2.33
2022-11-15T03:05:43.389Z,2.27
2022-11-15T03:08:52.586Z,2.32
2022-11-15T03:11:46.389Z,2.34
2022-11-15T03:14:44.375Z,2.38
2022-11-15T03:17:37.139Z,2.32
2022-11-15T03:20:26.121Z,2.28
2022-11-15T03:23:12.698Z,2.17
2022-11-15T03:26:01.882Z,2.15
2022-11-15T03:29:03.531Z,2.21
2022-11-15T03:31:56.722Z,2.29
2022-11-15T03:34:47.134Z,2.33
2022-11-15T03:37:43.761Z,2.07
2022-11-15T03:41:00.777Z,2.04
2022-11-15T03:44:05.825Z,2.03
2022-11-15T03:47:13.508Z,2.01
2022-11-15T03:50:06.282Z,2.02
2022-11-15T03:52:55.546Z,2.07
2022-11-15T03:55:42.102Z,2.12
2022-11-15T03:58:28.624Z,2.15
2022-11-15T04:01:15.071Z,2.18
2022-11-15T04:04:01.757Z,2.17
2022-11-15T04:06:48.329Z,2.16
2022-11-15T04:09:34.767Z,2.23
2022-11-15T04:12:31.830Z,2.21
2022-11-15T04:15:24.594Z,2.19
2022-11-15T04:18:10.872Z,2.17
2022-11-15T04:21:15.577Z,2.22
2022-11-15T04:24:08.256Z,2.28
2022-11-15T04:26:54.625Z,2.31
2022-11-15T04:29:41.037Z,2.33
2022-11-15T04:32:27.584Z,2.37
2022-11-15T04:35:14.386Z,2.14
2022-11-15T04:38:01.805Z,2.22
2022-11-15T04:40:48.168Z,2.28
2022-11-15T04:43:34.862Z,2.31
2022-11-15T04:46:22.553Z,2.23
2022-11-15T04:49:08.797Z,2.13
2022-11-15T04:51:55.564Z,2.07
2022-11-15T04:54:43.255Z,1.97
2022-11-15T04:57:29.992Z,1.92
2022-11-15T05:00:18.024Z,1.98
2022-11-15T05:03:22.954Z,2.04
2022-11-15T05:06:09.130Z,1.82
2022-11-15T05:08:56.249Z,1.55
2022-11-15T05:11:43.423Z,1.65
2022-11-15T05:14:30.332Z,1.81
2022-11-15T05:17:16.537Z,1.92
2022-11-15T05:20:03.106Z,1.91
2022-11-15T05:22:49.417Z,1.88
2022-11-15T05:25:37.212Z,1.96
2022-11-15T05:28:38.524Z,2.05
2022-11-15T05:31:27.546Z,1.98
2022-11-15T05:34:14.214Z,1.92
2022-11-15T05:37:00.651Z,2.01
2022-11-15T05:39:47.386Z,2.01
2022-11-15T05:42:33.661Z,1.98
2022-11-15T05:45:26.525Z,2.05
2022-11-15T05:48:13.687Z,2.03
2022-11-15T05:51:00.850Z,2.07
2022-11-15T05:53:47.917Z,2.16
2022-11-15T05:56:34.151Z,2.26
2022-11-15T05:59:21.217Z,2.30
2022-11-15T06:02:07.736Z,2.37
2022-11-15T06:04:54.353Z,2.40
2022-11-15T06:07:40.684Z,2.47
2022-11-15T06:10:27.406Z,2.54
2022-11-15T06:13:13.597Z,2.61
2022-11-15T06:16:00.552Z,2.62
2022-11-15T06:18:46.984Z,2.68
2022-11-15T06:21:33.132Z,2.72
2022-11-15T06:24:19.748Z,2.74
2022-11-15T06:27:06.259Z,2.76
2022-11-15T06:29:52.806Z,2.74
2022-11-15T06:32:39.233Z,2.76
2022-11-15T06:35:25.879Z,2.78
2022-11-15T06:38:12.661Z,2.60
2022-11-15T06:41:07.462Z,2.47
2022-11-15T06:43:54.147Z,2.52
2022-11-15T06:46:40.801Z,2.52
2022-11-15T06:49:27.170Z,2.57
